sensor_id;sensor_type;location;lat;lon;timestamp;pressure;altitude;pressure_sealevel;temperature;humidity
45071;BME280;30836;48.906;9.140;2023-10-13T00:00:36;986.74;;;26.24;40.53
45071;BME280;30836;48.906;9.140;2023-10-13T00:01:37;986.78;;;26.21;40.78
45071;BME280;30836;48.906;9.140;2023-10-13T00:02:37;986.80;;;26.19;40.82
45071;BME280;30836;48.906;9.140;2023-10-13T00:03:38;986.80;;;26.17;40.98
45071;BME280;30836;48.906;9.140;2023-10-13T00:04:38;986.78;;;26.14;41.12
45071;BME280;30836;48.906;9.140;2023-10-13T00:05:39;986.80;;;26.11;41.23
45071;BME280;30836;48.906;9.140;2023-10-13T00:06:39;986.78;;;26.09;41.33
45071;BME280;30836;48.906;9.140;2023-10-13T00:07:39;986.78;;;26.06;41.46
45071;BME280;30836;48.906;9.140;2023-10-13T00:08:40;986.76;;;26.04;41.46
45071;BME280;30836;48.906;9.140;2023-10-13T00:09:40;986.74;;;26.03;41.52
45071;BME280;30836;48.906;9.140;2023-10-13T00:10:41;986.74;;;26.01;41.55
45071;BME280;30836;48.906;9.140;2023-10-13T00:11:42;986.72;;;26.00;41.50
45071;BME280;30836;48.906;9.140;2023-10-13T00:12:43;986.72;;;26.00;41.47
45071;BME280;30836;48.906;9.140;2023-10-13T00:13:43;986.70;;;25.99;41.36
45071;BME280;30836;48.906;9.140;2023-10-13T00:14:44;986.66;;;25.97;41.24
45071;BME280;30836;48.906;9.140;2023-10-13T00:15:45;986.62;;;25.95;40.63
45071;BME280;30836;48.906;9.140;2023-10-13T00:16:47;986.62;;;25.92;40.70
45071;BME280;30836;48.906;9.140;2023-10-13T00:17:48;986.60;;;25.90;40.74
45071;BME280;30836;48.906;9.140;2023-10-13T00:18:49;986.60;;;25.88;40.58
45071;BME280;30836;48.906;9.140;2023-10-13T00:19:50;986.62;;;25.86;40.60
45071;BME280;30836;48.906;9.140;2023-10-13T00:20:50;986.62;;;25.84;40.47
45071;BME280;30836;48.906;9.140;2023-10-13T00:21:51;986.62;;;25.83;40.45
45071;BME280;30836;48.906;9.140;2023-10-13T00:22:51;986.62;;;25.82;40.44
45071;BME280;30836;48.906;9.140;2023-10-13T00:23:52;986.58;;;25.81;40.24
45071;BME280;30836;48.906;9.140;2023-10-13T00:24:52;986.60;;;25.79;40.26
45071;BME280;30836;48.906;9.140;2023-10-13T00:25:53;986.58;;;25.75;39.97
45071;BME280;30836;48.906;9.140;2023-10-13T00:26:54;986.54;;;25.69;39.95
45071;BME280;30836;48.906;9.140;2023-10-13T00:27:54;986.54;;;25.64;39.90
45071;BME280;30836;48.906;9.140;2023-10-13T00:28:58;986.52;;;25.60;39.99
45071;BME280;30836;48.906;9.140;2023-10-13T00:30:03;986.54;;;25.57;39.82
45071;BME280;30836;48.906;9.140;2023-10-13T00:31:06;986.52;;;25.54;39.42
45071;BME280;30836;48.906;9.140;2023-10-13T00:32:06;986.50;;;25.51;39.44
45071;BME280;30836;48.906;9.140;2023-10-13T00:33:06;986.52;;;25.50;39.60
45071;BME280;30836;48.906;9.140;2023-10-13T00:34:07;986.50;;;25.49;39.59
45071;BME280;30836;48.906;9.140;2023-10-13T00:35:07;986.50;;;25.50;39.54
45071;BME280;30836;48.906;9.140;2023-10-13T00:36:09;986.54;;;25.52;39.53
45071;BME280;30836;48.906;9.140;2023-10-13T00:36:19;986.54;;;25.53;39.52
45071;BME280;30836;48.906;9.140;2023-10-13T00:37:19;986.50;;;25.54;39.44
45071;BME280;30836;48.906;9.140;2023-10-13T00:38:20;986.52;;;25.54;39.18
45071;BME280;30836;48.906;9.140;2023-10-13T00:39:20;986.46;;;25.53;39.04
45071;BME280;30836;48.906;9.140;2023-10-13T00:40:21;986.44;;;25.50;38.88
45071;BME280;30836;48.906;9.140;2023-10-13T00:41:22;986.44;;;25.47;38.92
45071;BME280;30836;48.906;9.140;2023-10-13T00:42:22;986.46;;;25.45;38.86
45071;BME280;30836;48.906;9.140;2023-10-13T00:43:22;986.46;;;25.43;39.03
45071;BME280;30836;48.906;9.140;2023-10-13T00:44:23;986.42;;;25.40;38.68
45071;BME280;30836;48.906;9.140;2023-10-13T00:45:23;986.44;;;25.38;38.52
45071;BME280;30836;48.906;9.140;2023-10-13T00:46:24;986.44;;;25.36;38.25
45071;BME280;30836;48.906;9.140;2023-10-13T00:47:24;986.44;;;25.33;38.28
45071;BME280;30836;48.906;9.140;2023-10-13T00:48:25;986.44;;;25.31;38.29
45071;BME280;30836;48.906;9.140;2023-10-13T00:49:33;986.44;;;25.31;38.28
45071;BME280;30836;48.906;9.140;2023-10-13T00:50:34;986.46;;;25.31;38.24
45071;BME280;30836;48.906;9.140;2023-10-13T00:51:35;986.48;;;25.31;38.86
45071;BME280;30836;48.906;9.140;2023-10-13T00:52:36;986.48;;;25.31;38.33
45071;BME280;30836;48.906;9.140;2023-10-13T00:53:37;986.50;;;25.31;38.39
45071;BME280;30836;48.906;9.140;2023-10-13T00:54:40;986.52;;;25.31;38.17
45071;BME280;30836;48.906;9.140;2023-10-13T00:55:40;986.50;;;25.30;38.08
45071;BME280;30836;48.906;9.140;2023-10-13T00:56:42;986.48;;;25.25;38.46
45071;BME280;30836;48.906;9.140;2023-10-13T00:57:42;986.50;;;25.23;38.22
45071;BME280;30836;48.906;9.140;2023-10-13T00:58:43;986.48;;;25.21;38.31
45071;BME280;30836;48.906;9.140;2023-10-13T00:59:44;986.50;;;25.20;38.28
45071;BME280;30836;48.906;9.140;2023-10-13T01:00:44;986.50;;;25.19;38.20
45071;BME280;30836;48.906;9.140;2023-10-13T01:01:45;986.48;;;25.18;38.30
45071;BME280;30836;48.906;9.140;2023-10-13T01:02:45;986.48;;;25.19;38.35
45071;BME280;30836;48.906;9.140;2023-10-13T01:03:50;986.52;;;25.22;38.32
45071;BME280;30836;48.906;9.140;2023-10-13T01:04:53;986.54;;;25.25;38.56
45071;BME280;30836;48.906;9.140;2023-10-13T01:05:54;986.54;;;25.27;38.28
45071;BME280;30836;48.906;9.140;2023-10-13T01:06:56;986.54;;;25.27;38.28
45071;BME280;30836;48.906;9.140;2023-10-13T01:07:59;986.52;;;25.28;38.56
45071;BME280;30836;48.906;9.140;2023-10-13T01:09:02;986.48;;;25.30;38.46
45071;BME280;30836;48.906;9.140;2023-10-13T01:10:10;986.48;;;25.32;38.33
45071;BME280;30836;48.906;9.140;2023-10-13T01:11:10;986.44;;;25.35;38.17
45071;BME280;30836;48.906;9.140;2023-10-13T01:12:11;986.48;;;25.38;38.05
45071;BME280;30836;48.906;9.140;2023-10-13T01:13:11;986.44;;;25.40;38.03
45071;BME280;30836;48.906;9.140;2023-10-13T01:14:12;986.40;;;25.41;37.76
45071;BME280;30836;48.906;9.140;2023-10-13T01:15:13;986.38;;;25.39;37.77
45071;BME280;30836;48.906;9.140;2023-10-13T01:16:13;986.42;;;25.36;38.20
45071;BME280;30836;48.906;9.140;2023-10-13T01:17:14;986.40;;;25.35;37.88
45071;BME280;30836;48.906;9.140;2023-10-13T01:18:15;986.40;;;25.34;37.70
45071;BME280;30836;48.906;9.140;2023-10-13T01:19:16;986.42;;;25.32;37.86
45071;BME280;30836;48.906;9.140;2023-10-13T01:20:17;986.42;;;25.27;37.65
45071;BME280;30836;48.906;9.140;2023-10-13T01:21:17;986.44;;;25.12;37.81
45071;BME280;30836;48.906;9.140;2023-10-13T01:22:18;986.40;;;24.99;38.11
45071;BME280;30836;48.906;9.140;2023-10-13T01:23:19;986.38;;;24.97;37.92
45071;BME280;30836;48.906;9.140;2023-10-13T01:24:19;986.36;;;25.00;37.83
45071;BME280;30836;48.906;9.140;2023-10-13T01:25:20;986.34;;;25.02;37.80
45071;BME280;30836;48.906;9.140;2023-10-13T01:26:21;986.34;;;25.03;38.00
45071;BME280;30836;48.906;9.140;2023-10-13T01:27:21;986.33;;;25.05;37.82
45071;BME280;30836;48.906;9.140;2023-10-13T01:28:22;986.31;;;25.07;38.04
45071;BME280;30836;48.906;9.140;2023-10-13T01:29:23;986.29;;;25.10;37.86
45071;BME280;30836;48.906;9.140;2023-10-13T01:30:23;986.33;;;25.12;37.89
45071;BME280;30836;48.906;9.140;2023-10-13T01:31:24;986.31;;;25.13;37.91
45071;BME280;30836;48.906;9.140;2023-10-13T01:32:24;986.31;;;25.14;37.79
45071;BME280;30836;48.906;9.140;2023-10-13T01:33:24;986.29;;;25.15;37.78
45071;BME280;30836;48.906;9.140;2023-10-13T01:34:25;986.23;;;25.16;37.91
45071;BME280;30836;48.906;9.140;2023-10-13T01:35:25;986.25;;;25.17;37.81
45071;BME280;30836;48.906;9.140;2023-10-13T01:36:26;986.25;;;25.19;37.56
45071;BME280;30836;48.906;9.140;2023-10-13T01:37:27;986.25;;;25.19;37.29
45071;BME280;30836;48.906;9.140;2023-10-13T01:38:28;986.27;;;25.17;37.34
45071;BME280;30836;48.906;9.140;2023-10-13T01:39:28;986.23;;;25.12;36.97
45071;BME280;30836;48.906;9.140;2023-10-13T01:40:28;986.21;;;25.08;37.15
45071;BME280;30836;48.906;9.140;2023-10-13T01:41:29;986.23;;;25.07;37.11
45071;BME280;30836;48.906;9.140;2023-10-13T01:42:29;986.25;;;25.09;37.01
45071;BME280;30836;48.906;9.140;2023-10-13T01:43:30;986.23;;;25.12;36.89
45071;BME280;30836;48.906;9.140;2023-10-13T01:44:30;986.19;;;25.14;36.71
45071;BME280;30836;48.906;9.140;2023-10-13T01:45:30;986.21;;;25.16;36.76
45071;BME280;30836;48.906;9.140;2023-10-13T01:46:31;986.21;;;25.17;36.58
45071;BME280;30836;48.906;9.140;2023-10-13T01:47:32;986.21;;;25.17;36.94
45071;BME280;30836;48.906;9.140;2023-10-13T01:48:32;986.21;;;25.16;36.80
45071;BME280;30836;48.906;9.140;2023-10-13T01:49:33;986.21;;;25.15;36.71
45071;BME280;30836;48.906;9.140;2023-10-13T01:50:35;986.21;;;25.15;36.76
45071;BME280;30836;48.906;9.140;2023-10-13T01:50:46;986.19;;;25.13;36.78
45071;BME280;30836;48.906;9.140;2023-10-13T01:51:46;986.17;;;25.15;36.78
45071;BME280;30836;48.906;9.140;2023-10-13T01:52:47;986.19;;;25.17;36.67
45071;BME280;30836;48.906;9.140;2023-10-13T01:53:47;986.15;;;25.18;36.76
45071;BME280;30836;48.906;9.140;2023-10-13T01:54:48;986.17;;;25.19;36.42
45071;BME280;30836;48.906;9.140;2023-10-13T01:55:48;986.15;;;25.19;36.37
45071;BME280;30836;48.906;9.140;2023-10-13T01:56:49;986.13;;;25.15;36.21
45071;BME280;30836;48.906;9.140;2023-10-13T01:57:49;986.15;;;25.09;36.32
45071;BME280;30836;48.906;9.140;2023-10-13T01:58:50;986.17;;;25.05;36.23
45071;BME280;30836;48.906;9.140;2023-10-13T01:59:50;986.15;;;25.03;36.38
45071;BME280;30836;48.906;9.140;2023-10-13T02:00:51;986.15;;;25.02;36.52
45071;BME280;30836;48.906;9.140;2023-10-13T02:01:52;986.13;;;25.02;36.46
45071;BME280;30836;48.906;9.140;2023-10-13T02:02:52;986.11;;;25.02;36.45
45071;BME280;30836;48.906;9.140;2023-10-13T02:03:56;986.09;;;25.02;36.46
45071;BME280;30836;48.906;9.140;2023-10-13T02:04:56;986.05;;;25.00;36.43
45071;BME280;30836;48.906;9.140;2023-10-13T02:05:57;986.09;;;24.99;36.46
45071;BME280;30836;48.906;9.140;2023-10-13T02:06:57;986.05;;;24.97;36.37
45071;BME280;30836;48.906;9.140;2023-10-13T02:07:57;986.03;;;24.96;36.32
45071;BME280;30836;48.906;9.140;2023-10-13T02:08:59;986.01;;;24.96;36.33
45071;BME280;30836;48.906;9.140;2023-10-13T02:10:03;986.03;;;24.98;36.33
45071;BME280;30836;48.906;9.140;2023-10-13T02:11:05;986.01;;;24.98;36.28
45071;BME280;30836;48.906;9.140;2023-10-13T02:12:05;986.03;;;24.98;36.20
45071;BME280;30836;48.906;9.140;2023-10-13T02:13:06;986.03;;;24.96;36.10
45071;BME280;30836;48.906;9.140;2023-10-13T02:14:06;986.01;;;24.93;36.15
45071;BME280;30836;48.906;9.140;2023-10-13T02:15:07;985.99;;;24.92;36.06
45071;BME280;30836;48.906;9.140;2023-10-13T02:16:09;986.01;;;24.91;36.05
45071;BME280;30836;48.906;9.140;2023-10-13T02:17:10;985.99;;;24.90;36.13
45071;BME280;30836;48.906;9.140;2023-10-13T02:18:13;985.95;;;24.90;36.14
45071;BME280;30836;48.906;9.140;2023-10-13T02:19:17;985.93;;;24.90;36.17
45071;BME280;30836;48.906;9.140;2023-10-13T02:20:17;985.93;;;24.88;36.10
45071;BME280;30836;48.906;9.140;2023-10-13T02:21:18;985.89;;;24.86;36.04
45071;BME280;30836;48.906;9.140;2023-10-13T02:22:18;985.89;;;24.81;36.16
45071;BME280;30836;48.906;9.140;2023-10-13T02:23:20;985.89;;;24.76;36.24
45071;BME280;30836;48.906;9.140;2023-10-13T02:24:24;985.85;;;24.76;36.11
45071;BME280;30836;48.906;9.140;2023-10-13T02:25:24;985.82;;;24.78;35.91
45071;BME280;30836;48.906;9.140;2023-10-13T02:26:29;985.82;;;24.83;35.73
45071;BME280;30836;48.906;9.140;2023-10-13T02:27:32;985.83;;;24.93;35.47
45071;BME280;30836;48.906;9.140;2023-10-13T02:28:33;985.80;;;25.05;35.28
45071;BME280;30836;48.906;9.140;2023-10-13T02:29:34;985.82;;;25.15;35.08
45071;BME280;30836;48.906;9.140;2023-10-13T02:30:40;985.83;;;25.23;34.97
45071;BME280;30836;48.906;9.140;2023-10-13T02:31:42;985.82;;;25.29;34.74
45071;BME280;30836;48.906;9.140;2023-10-13T02:32:43;985.82;;;25.31;34.75
45071;BME280;30836;48.906;9.140;2023-10-13T02:33:44;985.80;;;25.30;34.65
45071;BME280;30836;48.906;9.140;2023-10-13T02:34:45;985.80;;;25.30;34.75
45071;BME280;30836;48.906;9.140;2023-10-13T02:35:45;985.76;;;25.29;34.64
45071;BME280;30836;48.906;9.140;2023-10-13T02:36:46;985.76;;;25.28;34.71
45071;BME280;30836;48.906;9.140;2023-10-13T02:37:46;985.72;;;25.26;34.77
45071;BME280;30836;48.906;9.140;2023-10-13T02:38:46;985.70;;;25.21;34.79
45071;BME280;30836;48.906;9.140;2023-10-13T02:39:47;985.68;;;25.18;34.79
45071;BME280;30836;48.906;9.140;2023-10-13T02:40:47;985.64;;;25.15;34.86
45071;BME280;30836;48.906;9.140;2023-10-13T02:41:48;985.68;;;25.12;34.92
45071;BME280;30836;48.906;9.140;2023-10-13T02:42:48;985.66;;;25.15;34.81
45071;BME280;30836;48.906;9.140;2023-10-13T02:43:49;985.68;;;25.17;34.78
45071;BME280;30836;48.906;9.140;2023-10-13T02:44:50;985.68;;;25.19;34.71
45071;BME280;30836;48.906;9.140;2023-10-13T02:45:53;985.66;;;25.20;34.56
45071;BME280;30836;48.906;9.140;2023-10-13T02:46:54;985.70;;;25.18;34.60
45071;BME280;30836;48.906;9.140;2023-10-13T02:47:55;985.68;;;25.13;34.62
45071;BME280;30836;48.906;9.140;2023-10-13T02:48:55;985.66;;;25.13;34.73
45071;BME280;30836;48.906;9.140;2023-10-13T02:49:56;985.66;;;25.12;34.79
45071;BME280;30836;48.906;9.140;2023-10-13T02:50:57;985.64;;;25.13;34.72
45071;BME280;30836;48.906;9.140;2023-10-13T02:51:59;985.62;;;25.13;34.77
45071;BME280;30836;48.906;9.140;2023-10-13T02:53:00;985.62;;;25.11;34.76
45071;BME280;30836;48.906;9.140;2023-10-13T02:54:00;985.56;;;25.12;34.76
45071;BME280;30836;48.906;9.140;2023-10-13T02:55:01;985.56;;;25.12;34.72
45071;BME280;30836;48.906;9.140;2023-10-13T02:56:01;985.56;;;25.14;34.73
45071;BME280;30836;48.906;9.140;2023-10-13T02:57:02;985.54;;;25.16;34.62
45071;BME280;30836;48.906;9.140;2023-10-13T02:58:03;985.52;;;25.20;34.56
45071;BME280;30836;48.906;9.140;2023-10-13T02:59:03;985.50;;;25.23;34.54
45071;BME280;30836;48.906;9.140;2023-10-13T03:00:04;985.52;;;25.20;34.62
45071;BME280;30836;48.906;9.140;2023-10-13T03:01:05;985.48;;;25.15;34.68
45071;BME280;30836;48.906;9.140;2023-10-13T03:02:07;985.50;;;25.14;34.61
45071;BME280;30836;48.906;9.140;2023-10-13T03:03:07;985.48;;;25.17;34.61
45071;BME280;30836;48.906;9.140;2023-10-13T03:04:08;985.48;;;25.18;34.58
45071;BME280;30836;48.906;9.140;2023-10-13T03:05:08;985.50;;;25.19;34.54
45071;BME280;30836;48.906;9.140;2023-10-13T03:06:09;985.48;;;25.17;34.62
45071;BME280;30836;48.906;9.140;2023-10-13T03:07:09;985.50;;;25.17;34.56
45071;BME280;30836;48.906;9.140;2023-10-13T03:08:09;985.50;;;25.18;34.51
45071;BME280;30836;48.906;9.140;2023-10-13T03:09:10;985.50;;;25.17;34.55
45071;BME280;30836;48.906;9.140;2023-10-13T03:10:10;985.46;;;25.11;34.71
45071;BME280;30836;48.906;9.140;2023-10-13T03:11:11;985.46;;;25.02;34.88
45071;BME280;30836;48.906;9.140;2023-10-13T03:12:11;985.48;;;24.91;35.05
45071;BME280;30836;48.906;9.140;2023-10-13T03:13:12;985.44;;;24.83;35.21
45071;BME280;30836;48.906;9.140;2023-10-13T03:14:12;985.46;;;24.77;35.25
45071;BME280;30836;48.906;9.140;2023-10-13T03:15:12;985.44;;;24.73;35.25
45071;BME280;30836;48.906;9.140;2023-10-13T03:16:16;985.46;;;24.67;35.29
45071;BME280;30836;48.906;9.140;2023-10-13T03:17:17;985.48;;;24.61;35.42
45071;BME280;30836;48.906;9.140;2023-10-13T03:18:17;985.42;;;24.56;35.41
45071;BME280;30836;48.906;9.140;2023-10-13T03:19:17;985.42;;;24.53;35.42
45071;BME280;30836;48.906;9.140;2023-10-13T03:20:18;985.42;;;24.50;35.45
45071;BME280;30836;48.906;9.140;2023-10-13T03:21:19;985.40;;;24.47;35.50
45071;BME280;30836;48.906;9.140;2023-10-13T03:22:20;985.40;;;24.46;35.48
45071;BME280;30836;48.906;9.140;2023-10-13T03:23:21;985.38;;;24.47;35.38
45071;BME280;30836;48.906;9.140;2023-10-13T03:24:21;985.38;;;24.48;35.36
45071;BME280;30836;48.906;9.140;2023-10-13T03:25:22;985.38;;;24.47;35.36
45071;BME280;30836;48.906;9.140;2023-10-13T03:26:23;985.40;;;24.48;35.32
45071;BME280;30836;48.906;9.140;2023-10-13T03:27:23;985.38;;;24.48;35.32
45071;BME280;30836;48.906;9.140;2023-10-13T03:28:23;985.38;;;24.48;35.26
45071;BME280;30836;48.906;9.140;2023-10-13T03:29:24;985.38;;;24.48;35.33
45071;BME280;30836;48.906;9.140;2023-10-13T03:30:24;985.38;;;24.46;35.22
45071;BME280;30836;48.906;9.140;2023-10-13T03:31:25;985.38;;;24.45;35.27
45071;BME280;30836;48.906;9.140;2023-10-13T03:32:25;985.34;;;24.44;35.26
45071;BME280;30836;48.906;9.140;2023-10-13T03:33:26;985.34;;;24.43;35.29
45071;BME280;30836;48.906;9.140;2023-10-13T03:34:26;985.34;;;24.41;35.32
45071;BME280;30836;48.906;9.140;2023-10-13T03:35:27;985.32;;;24.40;35.32
45071;BME280;30836;48.906;9.140;2023-10-13T03:36:27;985.34;;;24.38;35.35
45071;BME280;30836;48.906;9.140;2023-10-13T03:37:27;985.34;;;24.35;35.32
45071;BME280;30836;48.906;9.140;2023-10-13T03:38:28;985.36;;;24.35;35.29
45071;BME280;30836;48.906;9.140;2023-10-13T03:39:28;985.34;;;24.34;35.28
45071;BME280;30836;48.906;9.140;2023-10-13T03:40:29;985.34;;;24.33;35.31
45071;BME280;30836;48.906;9.140;2023-10-13T03:41:29;985.34;;;24.32;35.37
45071;BME280;30836;48.906;9.140;2023-10-13T03:42:30;985.34;;;24.32;35.30
45071;BME280;30836;48.906;9.140;2023-10-13T03:43:31;985.34;;;24.33;35.26
45071;BME280;30836;48.906;9.140;2023-10-13T03:44:32;985.34;;;24.33;35.28
45071;BME280;30836;48.906;9.140;2023-10-13T03:45:33;985.31;;;24.31;35.37
45071;BME280;30836;48.906;9.140;2023-10-13T03:46:34;985.32;;;24.28;35.37
45071;BME280;30836;48.906;9.140;2023-10-13T03:47:35;985.36;;;24.29;35.28
45071;BME280;30836;48.906;9.140;2023-10-13T03:48:35;985.32;;;24.31;35.17
45071;BME280;30836;48.906;9.140;2023-10-13T03:49:36;985.34;;;24.32;35.12
45071;BME280;30836;48.906;9.140;2023-10-13T03:50:37;985.34;;;24.33;35.18
45071;BME280;30836;48.906;9.140;2023-10-13T03:51:39;985.32;;;24.32;35.28
45071;BME280;30836;48.906;9.140;2023-10-13T03:52:40;985.32;;;24.31;35.25
45071;BME280;30836;48.906;9.140;2023-10-13T03:53:41;985.32;;;24.31;35.29
45071;BME280;30836;48.906;9.140;2023-10-13T03:54:42;985.32;;;24.32;35.30
45071;BME280;30836;48.906;9.140;2023-10-13T03:55:43;985.32;;;24.34;35.23
45071;BME280;30836;48.906;9.140;2023-10-13T03:56:43;985.36;;;24.36;35.19
45071;BME280;30836;48.906;9.140;2023-10-13T03:57:44;985.34;;;24.36;35.17
45071;BME280;30836;48.906;9.140;2023-10-13T03:58:44;985.36;;;24.36;35.17
45071;BME280;30836;48.906;9.140;2023-10-13T03:59:45;985.36;;;24.34;35.21
45071;BME280;30836;48.906;9.140;2023-10-13T04:00:45;985.38;;;24.33;35.23
45071;BME280;30836;48.906;9.140;2023-10-13T04:01:46;985.36;;;24.33;35.26
45071;BME280;30836;48.906;9.140;2023-10-13T04:02:48;985.34;;;24.34;35.14
45071;BME280;30836;48.906;9.140;2023-10-13T04:03:48;985.36;;;24.35;35.26
45071;BME280;30836;48.906;9.140;2023-10-13T04:04:49;985.36;;;24.36;35.19
45071;BME280;30836;48.906;9.140;2023-10-13T04:05:49;985.38;;;24.36;35.11
45071;BME280;30836;48.906;9.140;2023-10-13T04:06:49;985.36;;;24.37;34.99
45071;BME280;30836;48.906;9.140;2023-10-13T04:07:50;985.36;;;24.37;34.96
45071;BME280;30836;48.906;9.140;2023-10-13T04:08:50;985.36;;;24.37;35.03
45071;BME280;30836;48.906;9.140;2023-10-13T04:09:51;985.34;;;24.38;35.24
45071;BME280;30836;48.906;9.140;2023-10-13T04:10:51;985.34;;;24.38;35.41
45071;BME280;30836;48.906;9.140;2023-10-13T04:11:53;985.36;;;24.38;35.56
45071;BME280;30836;48.906;9.140;2023-10-13T04:12:53;985.36;;;24.37;35.60
45071;BME280;30836;48.906;9.140;2023-10-13T04:13:54;985.38;;;24.36;35.50
45071;BME280;30836;48.906;9.140;2023-10-13T04:14:54;985.38;;;24.35;35.54
45071;BME280;30836;48.906;9.140;2023-10-13T04:15:55;985.38;;;24.34;35.52
45071;BME280;30836;48.906;9.140;2023-10-13T04:16:55;985.38;;;24.33;35.59
45071;BME280;30836;48.906;9.140;2023-10-13T04:17:56;985.36;;;24.34;35.61
45071;BME280;30836;48.906;9.140;2023-10-13T04:18:56;985.36;;;24.34;35.67
45071;BME280;30836;48.906;9.140;2023-10-13T04:19:57;985.36;;;24.34;35.70
45071;BME280;30836;48.906;9.140;2023-10-13T04:20:58;985.38;;;24.34;35.72
45071;BME280;30836;48.906;9.140;2023-10-13T04:21:59;985.36;;;24.33;35.46
45071;BME280;30836;48.906;9.140;2023-10-13T04:22:59;985.36;;;24.33;35.39
45071;BME280;30836;48.906;9.140;2023-10-13T04:24:00;985.36;;;24.33;35.57
45071;BME280;30836;48.906;9.140;2023-10-13T04:25:00;985.34;;;24.31;36.10
45071;BME280;30836;48.906;9.140;2023-10-13T04:26:04;985.31;;;24.29;36.58
45071;BME280;30836;48.906;9.140;2023-10-13T04:27:05;985.31;;;24.28;36.96
45071;BME280;30836;48.906;9.140;2023-10-13T04:29:07;985.32;;;24.22;37.07
45071;BME280;30836;48.906;9.140;2023-10-13T04:30:08;985.31;;;24.18;36.63
45071;BME280;30836;48.906;9.140;2023-10-13T04:31:08;985.29;;;24.15;36.81
45071;BME280;30836;48.906;9.140;2023-10-13T04:32:09;985.29;;;24.14;36.53
45071;BME280;30836;48.906;9.140;2023-10-13T04:33:09;985.29;;;24.12;36.29
45071;BME280;30836;48.906;9.140;2023-10-13T04:34:10;985.27;;;24.11;36.17
45071;BME280;30836;48.906;9.140;2023-10-13T04:35:10;985.25;;;24.10;36.23
45071;BME280;30836;48.906;9.140;2023-10-13T04:36:11;985.25;;;24.08;36.18
45071;BME280;30836;48.906;9.140;2023-10-13T04:37:13;985.23;;;24.08;35.97
45071;BME280;30836;48.906;9.140;2023-10-13T04:38:14;985.21;;;24.13;35.63
45071;BME280;30836;48.906;9.140;2023-10-13T04:39:14;985.19;;;24.23;35.21
45071;BME280;30836;48.906;9.140;2023-10-13T04:40:14;985.19;;;24.32;34.95
45071;BME280;30836;48.906;9.140;2023-10-13T04:41:15;985.17;;;24.38;35.10
45071;BME280;30836;48.906;9.140;2023-10-13T04:42:15;985.15;;;24.43;35.08
45071;BME280;30836;48.906;9.140;2023-10-13T04:43:16;985.15;;;24.42;35.23
45071;BME280;30836;48.906;9.140;2023-10-13T04:44:16;985.15;;;24.36;35.36
45071;BME280;30836;48.906;9.140;2023-10-13T04:45:17;985.13;;;24.29;35.42
45071;BME280;30836;48.906;9.140;2023-10-13T04:46:18;985.11;;;24.22;35.40
45071;BME280;30836;48.906;9.140;2023-10-13T04:47:18;985.07;;;24.16;35.47
45071;BME280;30836;48.906;9.140;2023-10-13T04:48:18;985.09;;;24.12;35.51
45071;BME280;30836;48.906;9.140;2023-10-13T04:49:20;985.09;;;24.07;35.58
45071;BME280;30836;48.906;9.140;2023-10-13T04:50:21;985.07;;;24.02;35.61
45071;BME280;30836;48.906;9.140;2023-10-13T04:51:21;985.07;;;23.97;35.65
45071;BME280;30836;48.906;9.140;2023-10-13T04:52:22;985.03;;;23.95;35.70
45071;BME280;30836;48.906;9.140;2023-10-13T04:53:22;985.03;;;23.94;35.72
45071;BME280;30836;48.906;9.140;2023-10-13T04:54:22;985.05;;;23.94;35.80
45071;BME280;30836;48.906;9.140;2023-10-13T04:55:23;985.01;;;23.96;35.67
45071;BME280;30836;48.906;9.140;2023-10-13T04:56:23;985.01;;;23.98;35.74
45071;BME280;30836;48.906;9.140;2023-10-13T04:57:24;984.99;;;24.00;35.79
45071;BME280;30836;48.906;9.140;2023-10-13T04:58:24;984.99;;;24.01;36.17
45071;BME280;30836;48.906;9.140;2023-10-13T04:59:25;984.97;;;24.02;36.08
45071;BME280;30836;48.906;9.140;2023-10-13T05:00:25;985.01;;;24.03;35.93
45071;BME280;30836;48.906;9.140;2023-10-13T05:01:26;985.01;;;24.04;35.99
45071;BME280;30836;48.906;9.140;2023-10-13T05:02:26;985.01;;;24.05;35.92
45071;BME280;30836;48.906;9.140;2023-10-13T05:03:26;984.99;;;24.06;35.96
45071;BME280;30836;48.906;9.140;2023-10-13T05:04:27;985.01;;;24.07;35.95
45071;BME280;30836;48.906;9.140;2023-10-13T05:05:27;984.97;;;24.07;35.89
45071;BME280;30836;48.906;9.140;2023-10-13T05:06:28;984.99;;;24.06;35.92
45071;BME280;30836;48.906;9.140;2023-10-13T05:07:29;984.97;;;24.05;35.95
45071;BME280;30836;48.906;9.140;2023-10-13T05:08:29;984.97;;;24.04;36.01
45071;BME280;30836;48.906;9.140;2023-10-13T05:09:29;984.95;;;24.02;36.03
45071;BME280;30836;48.906;9.140;2023-10-13T05:10:30;984.93;;;23.99;36.14
45071;BME280;30836;48.906;9.140;2023-10-13T05:11:31;984.95;;;23.96;36.26
45071;BME280;30836;48.906;9.140;2023-10-13T05:12:31;984.97;;;23.91;36.33
45071;BME280;30836;48.906;9.140;2023-10-13T05:13:32;984.93;;;23.88;36.38
45071;BME280;30836;48.906;9.140;2023-10-13T05:14:32;984.93;;;23.84;36.40
45071;BME280;30836;48.906;9.140;2023-10-13T05:15:33;984.93;;;23.81;36.41
45071;BME280;30836;48.906;9.140;2023-10-13T05:16:33;984.89;;;23.77;36.53
45071;BME280;30836;48.906;9.140;2023-10-13T05:17:34;984.91;;;23.73;36.65
45071;BME280;30836;48.906;9.140;2023-10-13T05:18:35;984.89;;;23.68;36.72
45071;BME280;30836;48.906;9.140;2023-10-13T05:19:36;984.91;;;23.65;36.73
45071;BME280;30836;48.906;9.140;2023-10-13T05:20:36;984.87;;;23.63;36.74
45071;BME280;30836;48.906;9.140;2023-10-13T05:21:37;984.85;;;23.61;36.81
45071;BME280;30836;48.906;9.140;2023-10-13T05:22:37;984.83;;;23.57;36.83
45071;BME280;30836;48.906;9.140;2023-10-13T05:23:38;984.83;;;23.56;36.90
45071;BME280;30836;48.906;9.140;2023-10-13T05:24:38;984.81;;;23.56;36.89
45071;BME280;30836;48.906;9.140;2023-10-13T05:25:39;984.81;;;23.57;36.87
45071;BME280;30836;48.906;9.140;2023-10-13T05:26:39;984.79;;;23.58;36.85
45071;BME280;30836;48.906;9.140;2023-10-13T05:27:40;984.79;;;23.57;36.80
45071;BME280;30836;48.906;9.140;2023-10-13T05:28:40;984.79;;;23.54;36.98
45071;BME280;30836;48.906;9.140;2023-10-13T05:29:41;984.79;;;23.50;37.00
45071;BME280;30836;48.906;9.140;2023-10-13T05:30:43;984.79;;;23.49;36.99